Marselisborg — A8VR8 — position and weather

sailwx.info

Track history (hours):
 
Tides and Currents Weather Stations Pressure Air Temp Water Temp Dewpoint Dewpoint Depression Visibility Wind Speed Wind Dir Waves Ship Positions

Marselisborg

Last reported at 2014-Nov-24 13:32 UTC. Time now 2014-Nov-24 13:51 UTC.
Position N 29°41' W 094°59'.

Length 138 m; draft 6 m.

Type: Ship. MMSI: 636092036.

Date/timePositionNaut miles runAvg speedWind from/ knotsBaromVisibWave heightAir tempDewpointWater temp
2014-Nov-24 13:32N 29°41' W 094°59'0 0.0
2014-Nov-24 12:32N 29°41' W 094°59'0 0.0
2014-Nov-24 11:29N 29°41' W 094°59'0 0.0
2014-Nov-24 10:32N 29°41' W 094°59'0 0.0
2014-Nov-24 09:32N 29°41' W 094°59'0 0.0
2014-Nov-24 08:32N 29°41' W 094°59'0 0.0
2014-Nov-24 07:32N 29°41' W 094°59'0 0.0
2014-Nov-24 06:29N 29°41' W 094°59'0 0.0
2014-Nov-24 05:32N 29°41' W 094°59'0 0.0
2014-Nov-24 04:32N 29°41' W 094°59'0 0.0
2014-Nov-24 03:32N 29°41' W 094°59'0 0.0
2014-Nov-24 02:32N 29°41' W 094°59'0 0.0
2014-Nov-24 01:29N 29°41' W 094°59'0 0.0
2014-Nov-24 00:32N 29°41' W 094°59'0 0.0
2014-Nov-23 23:32N 29°41' W 094°59'0 0.0
2014-Nov-23 22:32N 29°41' W 094°59'0 0.0
2014-Nov-23 21:29N 29°41' W 094°59'0 0.0
2014-Nov-23 20:32N 29°41' W 094°59'0 0.0
2014-Nov-23 19:32N 29°41' W 094°59'0 0.0
2014-Nov-23 18:32N 29°41' W 094°59'0 0.0
2014-Nov-23 17:32N 29°41' W 094°59'0 0.0
2014-Nov-23 16:32N 29°41' W 094°59'0 0.0
2014-Nov-23 15:32N 29°41' W 094°59'0 0.0
2014-Nov-23 14:32N 29°41' W 094°59'0 0.0
2014-Nov-23 13:32N 29°41' W 094°59'0 0.0
2014-Nov-23 12:32N 29°41' W 094°59'0 0.0
2014-Nov-23 11:32N 29°41' W 094°59'0 0.0
2014-Nov-23 10:32N 29°41' W 094°59'0 0.0
2014-Nov-23 09:32N 29°41' W 094°59'0 0.0
2014-Nov-23 08:32N 29°41' W 094°59'0 0.0
2014-Nov-23 07:32N 29°41' W 094°59'0 0.0
2014-Nov-23 06:32N 29°41' W 094°59'0 0.0
2014-Nov-23 05:32N 29°41' W 094°59'0 0.0
2014-Nov-23 04:32N 29°41' W 094°59'0 0.0
2014-Nov-23 03:32N 29°41' W 094°59'0 0.0
2014-Nov-23 02:29N 29°41' W 094°59'0 0.0
2014-Nov-23 01:32N 29°41' W 094°59'0 0.0
2014-Nov-23 00:34N 29°41' W 094°59'7 6.3
2014-Nov-22 23:24N 29°34' W 094°56'253 5.7
2014-Nov-21 03:07N 29°55' W 090°05'2 0.1
2014-Nov-20 03:33N 29°56' W 090°03'  
2014-Nov-17 06:20N 25°45' W 079°57'810.3
2014-Nov-17 05:32N 25°53' W 079°57'1111.3
2014-Nov-17 04:33N 26°03' W 080°03'4 3.8
2014-Nov-17 03:27N 26°05' W 080°07'0 0.0
2014-Nov-17 02:27N 26°05' W 080°07'0 0.0
2014-Nov-17 01:27N 26°05' W 080°07'0 0.0
2014-Nov-17 00:30N 26°05' W 080°07'0 0.0
2014-Nov-16 23:30N 26°05' W 080°07'0 0.0
2014-Nov-16 22:30N 26°05' W 080°07'0 0.0
2014-Nov-16 21:33N 26°05' W 080°07'0 0.0
2014-Nov-16 20:33N 26°05' W 080°07'0 0.0
2014-Nov-16 19:33N 26°05' W 080°07'0 0.0
2014-Nov-16 18:33N 26°05' W 080°07'0 0.0
2014-Nov-16 17:33N 26°05' W 080°07'0 0.0
2014-Nov-16 16:33N 26°05' W 080°07'0 0.0
2014-Nov-16 15:33N 26°05' W 080°07'0 0.0
2014-Nov-16 14:24N 26°05' W 080°07'0 0.0
2014-Nov-16 13:24N 26°05' W 080°07'0 0.0
2014-Nov-16 12:27N 26°05' W 080°07'0 0.0
2014-Nov-16 11:27N 26°05' W 080°07'0 0.0
2014-Nov-16 10:27N 26°05' W 080°07'0 0.0
2014-Nov-16 09:30N 26°05' W 080°07'0 0.0
2014-Nov-16 08:30N 26°05' W 080°07'0 0.0
2014-Nov-16 07:34N 26°05' W 080°07'3 2.8
2014-Nov-16 06:34N 26°06' W 080°04'1 1.4
2014-Nov-16 05:32N 26°07' W 080°04'0 0.0
2014-Nov-16 04:32N 26°07' W 080°04'0 0.0
2014-Nov-16 03:32N 26°07' W 080°04'0 0.0
2014-Nov-16 02:32N 26°07' W 080°04'0 0.0
2014-Nov-16 01:32N 26°07' W 080°04'0 0.0
2014-Nov-16 00:32N 26°07' W 080°04'0 0.1
2014-Nov-15 23:33N 26°07' W 080°04'4 4.5
2014-Nov-15 22:33N 26°04' W 080°01'1413.9
2014-Nov-15 21:33N 25°52' W 079°52'  
Track history (hours):
 
Tides and Currents Weather Stations Pressure Air Temp Water Temp Dewpoint Dewpoint Depression Visibility Wind Speed Wind Dir Waves Ship Positions

Marselisborg

Last reported at 2014-Nov-24 13:32 UTC. Time now 2014-Nov-24 13:51 UTC.
Position N 29°41' W 094°59'.

Length 138 m; draft 6 m.

Type: Ship. MMSI: 636092036.

Date/timePositionNaut miles runAvg speedWind from/ knotsBaromVisibWave heightAir tempDewpointWater temp
2014-Nov-24 13:32N 29°41' W 094°59'0 0.0
2014-Nov-24 12:32N 29°41' W 094°59'0 0.0
2014-Nov-24 11:29N 29°41' W 094°59'0 0.0
2014-Nov-24 10:32N 29°41' W 094°59'0 0.0
2014-Nov-24 09:32N 29°41' W 094°59'0 0.0
2014-Nov-24 08:32N 29°41' W 094°59'0 0.0
2014-Nov-24 07:32N 29°41' W 094°59'0 0.0
2014-Nov-24 06:29N 29°41' W 094°59'0 0.0
2014-Nov-24 05:32N 29°41' W 094°59'0 0.0
2014-Nov-24 04:32N 29°41' W 094°59'0 0.0
2014-Nov-24 03:32N 29°41' W 094°59'0 0.0
2014-Nov-24 02:32N 29°41' W 094°59'0 0.0
2014-Nov-24 01:29N 29°41' W 094°59'0 0.0
2014-Nov-24 00:32N 29°41' W 094°59'0 0.0
2014-Nov-23 23:32N 29°41' W 094°59'0 0.0
2014-Nov-23 22:32N 29°41' W 094°59'0 0.0
2014-Nov-23 21:29N 29°41' W 094°59'0 0.0
2014-Nov-23 20:32N 29°41' W 094°59'0 0.0
2014-Nov-23 19:32N 29°41' W 094°59'0 0.0
2014-Nov-23 18:32N 29°41' W 094°59'0 0.0
2014-Nov-23 17:32N 29°41' W 094°59'0 0.0
2014-Nov-23 16:32N 29°41' W 094°59'0 0.0
2014-Nov-23 15:32N 29°41' W 094°59'0 0.0
2014-Nov-23 14:32N 29°41' W 094°59'0 0.0
2014-Nov-23 13:32N 29°41' W 094°59'0 0.0
2014-Nov-23 12:32N 29°41' W 094°59'0 0.0
2014-Nov-23 11:32N 29°41' W 094°59'0 0.0
2014-Nov-23 10:32N 29°41' W 094°59'0 0.0
2014-Nov-23 09:32N 29°41' W 094°59'0 0.0
2014-Nov-23 08:32N 29°41' W 094°59'0 0.0
2014-Nov-23 07:32N 29°41' W 094°59'0 0.0
2014-Nov-23 06:32N 29°41' W 094°59'0 0.0
2014-Nov-23 05:32N 29°41' W 094°59'0 0.0
2014-Nov-23 04:32N 29°41' W 094°59'0 0.0
2014-Nov-23 03:32N 29°41' W 094°59'0 0.0
2014-Nov-23 02:29N 29°41' W 094°59'0 0.0
2014-Nov-23 01:32N 29°41' W 094°59'0 0.0
2014-Nov-23 00:34N 29°41' W 094°59'7 6.3
2014-Nov-22 23:24N 29°34' W 094°56'253 5.7
2014-Nov-21 03:07N 29°55' W 090°05'2 0.1
2014-Nov-20 03:33N 29°56' W 090°03'  
2014-Nov-17 06:20N 25°45' W 079°57'810.3
2014-Nov-17 05:32N 25°53' W 079°57'1111.3
2014-Nov-17 04:33N 26°03' W 080°03'4 3.8
2014-Nov-17 03:27N 26°05' W 080°07'0 0.0
2014-Nov-17 02:27N 26°05' W 080°07'0 0.0
2014-Nov-17 01:27N 26°05' W 080°07'0 0.0
2014-Nov-17 00:30N 26°05' W 080°07'0 0.0
2014-Nov-16 23:30N 26°05' W 080°07'0 0.0
2014-Nov-16 22:30N 26°05' W 080°07'0 0.0
2014-Nov-16 21:33N 26°05' W 080°07'0 0.0
2014-Nov-16 20:33N 26°05' W 080°07'0 0.0
2014-Nov-16 19:33N 26°05' W 080°07'0 0.0
2014-Nov-16 18:33N 26°05' W 080°07'0 0.0
2014-Nov-16 17:33N 26°05' W 080°07'0 0.0
2014-Nov-16 16:33N 26°05' W 080°07'0 0.0
2014-Nov-16 15:33N 26°05' W 080°07'0 0.0
2014-Nov-16 14:24N 26°05' W 080°07'0 0.0
2014-Nov-16 13:24N 26°05' W 080°07'0 0.0
2014-Nov-16 12:27N 26°05' W 080°07'0 0.0
2014-Nov-16 11:27N 26°05' W 080°07'0 0.0
2014-Nov-16 10:27N 26°05' W 080°07'0 0.0
2014-Nov-16 09:30N 26°05' W 080°07'0 0.0
2014-Nov-16 08:30N 26°05' W 080°07'0 0.0
2014-Nov-16 07:34N 26°05' W 080°07'3 2.8
2014-Nov-16 06:34N 26°06' W 080°04'1 1.4
2014-Nov-16 05:32N 26°07' W 080°04'0 0.0
2014-Nov-16 04:32N 26°07' W 080°04'0 0.0
2014-Nov-16 03:32N 26°07' W 080°04'0 0.0
2014-Nov-16 02:32N 26°07' W 080°04'0 0.0
2014-Nov-16 01:32N 26°07' W 080°04'0 0.0
2014-Nov-16 00:32N 26°07' W 080°04'0 0.1
2014-Nov-15 23:33N 26°07' W 080°04'4 4.5
2014-Nov-15 22:33N 26°04' W 080°01'1413.9
2014-Nov-15 21:33N 25°52' W 079°52'  

Dump ship's entire track history